sensor_id;sensor_type;location;lat;lon;timestamp;pressure;altitude;pressure_sealevel;temperature;humidity
39449;BME280;25151;45.566;9.382;2023-10-13T00:00:27;100276.34;;;25.65;61.94
39449;BME280;25151;45.566;9.382;2023-10-13T00:02:57;100267.09;;;25.64;61.88
39449;BME280;25151;45.566;9.382;2023-10-13T00:05:30;100273.53;;;25.65;61.86
39449;BME280;25151;45.566;9.382;2023-10-13T00:08:00;100275.56;;;25.64;61.63
39449;BME280;25151;45.566;9.382;2023-10-13T00:10:29;100274.78;;;25.64;62.31
39449;BME280;25151;45.566;9.382;2023-10-13T00:12:56;100279.19;;;25.65;61.79
39449;BME280;25151;45.566;9.382;2023-10-13T00:15:52;100280.44;;;25.64;62.17
39449;BME280;25151;45.566;9.382;2023-10-13T00:18:28;100276.84;;;25.63;62.08
39449;BME280;25151;45.566;9.382;2023-10-13T00:21:08;100281.69;;;25.63;62.16
39449;BME280;25151;45.566;9.382;2023-10-13T00:23:46;100276.06;;;25.63;61.77
39449;BME280;25151;45.566;9.382;2023-10-13T00:26:22;100271.66;;;25.62;62.20
39449;BME280;25151;45.566;9.382;2023-10-13T00:31:39;100271.66;;;25.62;62.24
39449;BME280;25151;45.566;9.382;2023-10-13T00:34:09;100270.88;;;25.61;62.00
39449;BME280;25151;45.566;9.382;2023-10-13T00:36:45;100269.63;;;25.62;61.89
39449;BME280;25151;45.566;9.382;2023-10-13T00:39:35;100263.16;;;25.62;62.11
39449;BME280;25151;45.566;9.382;2023-10-13T00:42:11;100268.81;;;25.62;62.11
39449;BME280;25151;45.566;9.382;2023-10-13T00:44:51;100255.97;;;25.61;62.04
39449;BME280;25151;45.566;9.382;2023-10-13T00:47:21;100267.25;;;25.61;62.05
39449;BME280;25151;45.566;9.382;2023-10-13T00:50:13;100260.06;;;25.60;62.36
39449;BME280;25151;45.566;9.382;2023-10-13T00:52:43;100274.16;;;25.60;62.30
39449;BME280;25151;45.566;9.382;2023-10-13T00:55:13;100272.91;;;25.61;62.02
39449;BME280;25151;45.566;9.382;2023-10-13T00:57:42;100261.63;;;25.61;62.09
39449;BME280;25151;45.566;9.382;2023-10-13T01:00:12;100261.63;;;25.61;62.23
39449;BME280;25151;45.566;9.382;2023-10-13T01:02:48;100258.50;;;25.59;62.14
39449;BME280;25151;45.566;9.382;2023-10-13T01:05:23;100260.06;;;25.60;62.20
39449;BME280;25151;45.566;9.382;2023-10-13T01:07:51;100260.06;;;25.60;62.05
39449;BME280;25151;45.566;9.382;2023-10-13T01:10:21;100259.28;;;25.59;62.08
39449;BME280;25151;45.566;9.382;2023-10-13T01:12:52;100262.09;;;25.59;62.10
39449;BME280;25151;45.566;9.382;2023-10-13T01:15:19;100255.66;;;25.59;62.35
39449;BME280;25151;45.566;9.382;2023-10-13T01:18:10;100254.09;;;25.58;62.08
39449;BME280;25151;45.566;9.382;2023-10-13T01:20:40;100258.50;;;25.59;61.99
39449;BME280;25151;45.566;9.382;2023-10-13T01:23:12;100256.13;;;25.57;62.35
39449;BME280;25151;45.566;9.382;2023-10-13T01:25:45;100250.47;;;25.57;62.29
39449;BME280;25151;45.566;9.382;2023-10-13T01:28:14;100255.34;;;25.57;62.32
39449;BME280;25151;45.566;9.382;2023-10-13T01:30:45;100255.34;;;25.57;62.15
39449;BME280;25151;45.566;9.382;2023-10-13T01:33:18;100255.34;;;25.57;62.47
39449;BME280;25151;45.566;9.382;2023-10-13T01:36:03;100253.78;;;25.56;62.28
39449;BME280;25151;45.566;9.382;2023-10-13T01:38:32;100251.75;;;25.56;62.34
39449;BME280;25151;45.566;9.382;2023-10-13T01:40:59;100252.53;;;25.57;62.23
39449;BME280;25151;45.566;9.382;2023-10-13T01:43:27;100245.31;;;25.56;62.16
39449;BME280;25151;45.566;9.382;2023-10-13T01:45:54;100248.91;;;25.56;62.07
39449;BME280;25151;45.566;9.382;2023-10-13T01:48:21;100242.50;;;25.56;62.09
39449;BME280;25151;45.566;9.382;2023-10-13T01:50:49;100239.66;;;25.56;62.14
39449;BME280;25151;45.566;9.382;2023-10-13T01:53:25;100229.63;;;25.55;62.47
39449;BME280;25151;45.566;9.382;2023-10-13T01:55:54;100246.59;;;25.55;62.11
39449;BME280;25151;45.566;9.382;2023-10-13T01:58:24;100244.53;;;25.55;62.27
39449;BME280;25151;45.566;9.382;2023-10-13T02:00:52;100246.59;;;25.55;62.46
39449;BME280;25151;45.566;9.382;2023-10-13T02:03:22;100232.47;;;25.55;62.33
39449;BME280;25151;45.566;9.382;2023-10-13T02:05:49;100240.94;;;25.55;62.33
39449;BME280;25151;45.566;9.382;2023-10-13T02:08:23;100228.06;;;25.54;62.50
39449;BME280;25151;45.566;9.382;2023-10-13T02:10:55;100229.63;;;25.55;62.15
39449;BME280;25151;45.566;9.382;2023-10-13T02:13:23;100235.75;;;25.53;62.35
39449;BME280;25151;45.566;9.382;2023-10-13T02:15:54;100227.28;;;25.53;62.17
39449;BME280;25151;45.566;9.382;2023-10-13T02:18:22;100228.53;;;25.52;62.35
39449;BME280;25151;45.566;9.382;2023-10-13T02:21:02;100237.78;;;25.52;62.41
39449;BME280;25151;45.566;9.382;2023-10-13T02:23:39;100232.91;;;25.53;62.37
39449;BME280;25151;45.566;9.382;2023-10-13T02:26:11;100230.88;;;25.54;62.11
39449;BME280;25151;45.566;9.382;2023-10-13T02:29:01;100222.88;;;25.52;62.40
39449;BME280;25151;45.566;9.382;2023-10-13T02:31:30;100225.72;;;25.52;62.34
39449;BME280;25151;45.566;9.382;2023-10-13T02:33:57;100237.00;;;25.52;62.28
39449;BME280;25151;45.566;9.382;2023-10-13T02:36:26;100228.53;;;25.52;62.33
39449;BME280;25151;45.566;9.382;2023-10-13T02:39:11;100230.59;;;25.51;62.31
39449;BME280;25151;45.566;9.382;2023-10-13T02:41:40;100226.50;;;25.52;62.30
39449;BME280;25151;45.566;9.382;2023-10-13T02:44:07;100224.94;;;25.51;62.19
39449;BME280;25151;45.566;9.382;2023-10-13T02:46:36;100219.28;;;25.51;62.47
39449;BME280;25151;45.566;9.382;2023-10-13T02:49:05;100224.94;;;25.51;62.04
39449;BME280;25151;45.566;9.382;2023-10-13T02:51:39;100226.19;;;25.50;62.33
39449;BME280;25151;45.566;9.382;2023-10-13T02:54:08;100217.72;;;25.50;62.37
39449;BME280;25151;45.566;9.382;2023-10-13T02:56:37;100220.56;;;25.50;62.42
39449;BME280;25151;45.566;9.382;2023-10-13T02:59:14;100218.97;;;25.49;62.18
39449;BME280;25151;45.566;9.382;2023-10-13T03:01:41;100224.63;;;25.49;62.49
39449;BME280;25151;45.566;9.382;2023-10-13T03:04:08;100223.38;;;25.50;62.20
39449;BME280;25151;45.566;9.382;2023-10-13T03:06:39;100221.78;;;25.49;62.17
39449;BME280;25151;45.566;9.382;2023-10-13T03:09:09;100221.78;;;25.49;62.44
39449;BME280;25151;45.566;9.382;2023-10-13T03:11:46;100223.84;;;25.49;62.15
39449;BME280;25151;45.566;9.382;2023-10-13T03:14:16;100227.44;;;25.49;62.47
39449;BME280;25151;45.566;9.382;2023-10-13T03:17:02;100217.41;;;25.48;62.45
39449;BME280;25151;45.566;9.382;2023-10-13T03:19:35;100220.22;;;25.48;62.49
39449;BME280;25151;45.566;9.382;2023-10-13T03:22:07;100218.66;;;25.47;62.50
39449;BME280;25151;45.566;9.382;2023-10-13T03:24:43;100220.72;;;25.47;62.35
39449;BME280;25151;45.566;9.382;2023-10-13T03:27:17;100222.28;;;25.48;62.51
39449;BME280;25151;45.566;9.382;2023-10-13T03:29:48;100220.22;;;25.48;62.12
39449;BME280;25151;45.566;9.382;2023-10-13T03:32:22;100229.97;;;25.47;62.16
39449;BME280;25151;45.566;9.382;2023-10-13T03:34:52;100229.19;;;25.47;62.36
39449;BME280;25151;45.566;9.382;2023-10-13T03:37:28;100229.19;;;25.47;62.21
39449;BME280;25151;45.566;9.382;2023-10-13T03:40:09;100217.91;;;25.47;62.39
39449;BME280;25151;45.566;9.382;2023-10-13T03:42:54;100219.44;;;25.48;62.55
39449;BME280;25151;45.566;9.382;2023-10-13T03:45:39;100222.28;;;25.48;62.46
39449;BME280;25151;45.566;9.382;2023-10-13T03:48:09;100219.94;;;25.46;62.15
39449;BME280;25151;45.566;9.382;2023-10-13T03:50:40;100219.94;;;25.46;62.34
39449;BME280;25151;45.566;9.382;2023-10-13T03:53:27;100226.38;;;25.47;62.30
39449;BME280;25151;45.566;9.382;2023-10-13T03:56:04;100224.00;;;25.45;62.42
39449;BME280;25151;45.566;9.382;2023-10-13T03:58:35;100215.53;;;25.45;62.30
39449;BME280;25151;45.566;9.382;2023-10-13T04:01:05;100220.72;;;25.47;62.51
39449;BME280;25151;45.566;9.382;2023-10-13T04:03:33;100214.75;;;25.45;62.51
39449;BME280;25151;45.566;9.382;2023-10-13T04:06:05;100213.97;;;25.44;62.41
39449;BME280;25151;45.566;9.382;2023-10-13T04:08:34;100214.75;;;25.45;62.27
39449;BME280;25151;45.566;9.382;2023-10-13T04:11:22;100215.53;;;25.45;62.27
39449;BME280;25151;45.566;9.382;2023-10-13T04:14:41;100209.59;;;25.43;62.22
39449;BME280;25151;45.566;9.382;2023-10-13T04:17:21;100208.31;;;25.44;62.50
39449;BME280;25151;45.566;9.382;2023-10-13T04:19:56;100212.69;;;25.45;62.52
39449;BME280;25151;45.566;9.382;2023-10-13T04:22:42;100208.31;;;25.44;62.25
39449;BME280;25151;45.566;9.382;2023-10-13T04:25:14;100207.53;;;25.44;62.53
39449;BME280;25151;45.566;9.382;2023-10-13T04:27:59;100206.75;;;25.43;62.40
39449;BME280;25151;45.566;9.382;2023-10-13T04:33:25;100212.41;;;25.43;62.49
39449;BME280;25151;45.566;9.382;2023-10-13T04:36:09;100213.97;;;25.44;62.45
39449;BME280;25151;45.566;9.382;2023-10-13T04:38:58;100211.63;;;25.43;62.31
39449;BME280;25151;45.566;9.382;2023-10-13T04:41:48;100208.81;;;25.43;62.63
39449;BME280;25151;45.566;9.382;2023-10-13T04:44:16;100216.50;;;25.42;62.32
39449;BME280;25151;45.566;9.382;2023-10-13T04:47:02;100221.34;;;25.42;62.28
39449;BME280;25151;45.566;9.382;2023-10-13T04:49:30;100213.66;;;25.42;62.24
39449;BME280;25151;45.566;9.382;2023-10-13T04:52:09;100213.66;;;25.42;62.86
39449;BME280;25151;45.566;9.382;2023-10-13T04:57:25;100220.56;;;25.41;62.55
39449;BME280;25151;45.566;9.382;2023-10-13T05:00:14;100212.88;;;25.42;62.26
39449;BME280;25151;45.566;9.382;2023-10-13T05:02:44;100219.00;;;25.40;62.43
39449;BME280;25151;45.566;9.382;2023-10-13T05:05:28;100219.00;;;25.40;62.30
39449;BME280;25151;45.566;9.382;2023-10-13T05:08:13;100220.56;;;25.41;62.34
39449;BME280;25151;45.566;9.382;2023-10-13T05:11:02;100226.19;;;25.41;62.50
39449;BME280;25151;45.566;9.382;2023-10-13T05:14:01;100219.78;;;25.41;62.36
39449;BME280;25151;45.566;9.382;2023-10-13T05:16:46;100229.50;;;25.40;62.47
39449;BME280;25151;45.566;9.382;2023-10-13T05:19:32;100230.28;;;25.40;62.42
39449;BME280;25151;45.566;9.382;2023-10-13T05:22:17;100235.16;;;25.40;62.55
39449;BME280;25151;45.566;9.382;2023-10-13T05:25:03;100238.47;;;25.38;62.68
39449;BME280;25151;45.566;9.382;2023-10-13T05:27:47;100234.38;;;25.39;62.35
39449;BME280;25151;45.566;9.382;2023-10-13T05:30:32;100242.06;;;25.39;62.55
39449;BME280;25151;45.566;9.382;2023-10-13T05:33:17;100245.66;;;25.39;62.49
39449;BME280;25151;45.566;9.382;2023-10-13T05:36:03;100256.97;;;25.39;62.36
39449;BME280;25151;45.566;9.382;2023-10-13T05:38:52;100258.53;;;25.40;62.45
39449;BME280;25151;45.566;9.382;2023-10-13T05:41:37;100252.56;;;25.38;62.49
39449;BME280;25151;45.566;9.382;2023-10-13T05:44:21;100262.59;;;25.39;62.67
39449;BME280;25151;45.566;9.382;2023-10-13T05:47:04;100262.59;;;25.39;62.30
39449;BME280;25151;45.566;9.382;2023-10-13T05:49:59;100261.66;;;25.42;62.56
39449;BME280;25151;45.566;9.382;2023-10-13T05:52:43;100267.31;;;25.42;62.46
39449;BME280;25151;45.566;9.382;2023-10-13T05:55:31;100270.44;;;25.44;62.19
39449;BME280;25151;45.566;9.382;2023-10-13T05:58:15;100272.00;;;25.45;62.31
39449;BME280;25151;45.566;9.382;2023-10-13T06:01:01;100276.41;;;25.46;62.08
39449;BME280;25151;45.566;9.382;2023-10-13T06:03:46;100280.00;;;25.47;62.48
39449;BME280;25151;45.566;9.382;2023-10-13T06:06:31;100282.34;;;25.48;62.47
39449;BME280;25151;45.566;9.382;2023-10-13T06:09:16;100282.34;;;25.48;62.60
39449;BME280;25151;45.566;9.382;2023-10-13T06:12:01;100288.78;;;25.49;62.47
39449;BME280;25151;45.566;9.382;2023-10-13T06:14:46;100286.72;;;25.49;62.57
39449;BME280;25151;45.566;9.382;2023-10-13T06:17:31;100295.19;;;25.49;62.65
39449;BME280;25151;45.566;9.382;2023-10-13T06:20:18;100295.19;;;25.49;62.61
39449;BME280;25151;45.566;9.382;2023-10-13T06:23:03;100291.13;;;25.50;62.61
39449;BME280;25151;45.566;9.382;2023-10-13T06:25:51;100291.91;;;25.51;62.47
39449;BME280;25151;45.566;9.382;2023-10-13T06:28:53;100295.53;;;25.51;62.75
39449;BME280;25151;45.566;9.382;2023-10-13T06:31:20;100303.22;;;25.51;62.53
39449;BME280;25151;45.566;9.382;2023-10-13T06:33:47;100307.13;;;25.54;62.59
39449;BME280;25151;45.566;9.382;2023-10-13T06:36:14;100305.56;;;25.52;62.90
39449;BME280;25151;45.566;9.382;2023-10-13T06:38:40;100306.81;;;25.51;62.81
39449;BME280;25151;45.566;9.382;2023-10-13T06:41:07;100305.56;;;25.52;62.66
39449;BME280;25151;45.566;9.382;2023-10-13T06:43:35;100312.75;;;25.54;62.89
39449;BME280;25151;45.566;9.382;2023-10-13T06:46:12;100314.34;;;25.55;62.53
39449;BME280;25151;45.566;9.382;2023-10-13T06:48:42;100314.34;;;25.55;62.60
39449;BME280;25151;45.566;9.382;2023-10-13T06:51:09;100319.22;;;25.54;62.66
39449;BME280;25151;45.566;9.382;2023-10-13T06:53:47;100325.66;;;25.55;62.46
39449;BME280;25151;45.566;9.382;2023-10-13T06:56:17;100331.28;;;25.55;62.96
39449;BME280;25151;45.566;9.382;2023-10-13T06:58:50;100326.88;;;25.54;62.70
39449;BME280;25151;45.566;9.382;2023-10-13T07:01:17;100328.47;;;25.55;62.92
39449;BME280;25151;45.566;9.382;2023-10-13T07:03:49;100325.66;;;25.55;62.60
39449;BME280;25151;45.566;9.382;2023-10-13T07:06:20;100332.06;;;25.55;62.77
39449;BME280;25151;45.566;9.382;2023-10-13T07:08:47;100338.50;;;25.56;62.83
39449;BME280;25151;45.566;9.382;2023-10-13T07:11:26;100330.03;;;25.56;62.88
39449;BME280;25151;45.566;9.382;2023-10-13T07:14:15;100345.72;;;25.57;62.47
39449;BME280;25151;45.566;9.382;2023-10-13T07:17:02;100341.63;;;25.58;62.64
39449;BME280;25151;45.566;9.382;2023-10-13T07:19:30;100342.88;;;25.57;62.80
39449;BME280;25151;45.566;9.382;2023-10-13T07:22:01;100338.78;;;25.58;62.39
39449;BME280;25151;45.566;9.382;2023-10-13T07:24:48;100341.63;;;25.58;62.52
39449;BME280;25151;45.566;9.382;2023-10-13T07:27:20;100341.63;;;25.58;62.73
39449;BME280;25151;45.566;9.382;2023-10-13T07:32:23;100345.72;;;25.57;62.45
39449;BME280;25151;45.566;9.382;2023-10-13T07:34:53;100357.34;;;25.59;62.58
39449;BME280;25151;45.566;9.382;2023-10-13T07:37:23;100350.09;;;25.58;62.67
39449;BME280;25151;45.566;9.382;2023-10-13T07:39:58;100352.13;;;25.57;62.48
39449;BME280;25151;45.566;9.382;2023-10-13T07:42:28;100358.56;;;25.58;62.50
39449;BME280;25151;45.566;9.382;2023-10-13T07:45:07;100357.00;;;25.57;62.44
39449;BME280;25151;45.566;9.382;2023-10-13T07:47:37;100359.38;;;25.58;62.42
39449;BME280;25151;45.566;9.382;2023-10-13T07:50:08;100358.56;;;25.58;62.63
39449;BME280;25151;45.566;9.382;2023-10-13T07:52:35;100363.75;;;25.59;62.54
39449;BME280;25151;45.566;9.382;2023-10-13T07:55:26;100361.72;;;25.60;62.31
39449;BME280;25151;45.566;9.382;2023-10-13T07:57:52;100364.53;;;25.60;62.23
39449;BME280;25151;45.566;9.382;2023-10-13T08:00:26;100367.38;;;25.60;62.44
39449;BME280;25151;45.566;9.382;2023-10-13T08:03:04;100360.94;;;25.59;62.21
39449;BME280;25151;45.566;9.382;2023-10-13T08:05:53;100356.56;;;25.58;62.43
39449;BME280;25151;45.566;9.382;2023-10-13T08:08:31;100366.59;;;25.59;62.50
39449;BME280;25151;45.566;9.382;2023-10-13T08:11:10;100364.22;;;25.58;62.21
39449;BME280;25151;45.566;9.382;2023-10-13T08:13:54;100362.66;;;25.57;62.32
39449;BME280;25151;45.566;9.382;2023-10-13T08:16:23;100365.47;;;25.57;62.43
39449;BME280;25151;45.566;9.382;2023-10-13T08:18:55;100373.94;;;25.57;62.10
39449;BME280;25151;45.566;9.382;2023-10-13T08:21:23;100379.59;;;25.57;62.07
39449;BME280;25151;45.566;9.382;2023-10-13T08:23:52;100378.03;;;25.56;62.33
39449;BME280;25151;45.566;9.382;2023-10-13T08:26:23;100382.91;;;25.55;62.05
39449;BME280;25151;45.566;9.382;2023-10-13T08:29:02;100376.47;;;25.55;62.30
39449;BME280;25151;45.566;9.382;2023-10-13T08:31:52;100382.13;;;25.55;62.07
39449;BME280;25151;45.566;9.382;2023-10-13T08:34:31;100373.66;;;25.55;62.21
39449;BME280;25151;45.566;9.382;2023-10-13T08:37:10;100380.06;;;25.55;62.27
39449;BME280;25151;45.566;9.382;2023-10-13T08:39:45;100379.28;;;25.55;62.21
39449;BME280;25151;45.566;9.382;2023-10-13T08:42:32;100383.69;;;25.56;62.13
39449;BME280;25151;45.566;9.382;2023-10-13T08:45:11;100383.69;;;25.56;62.27
39449;BME280;25151;45.566;9.382;2023-10-13T08:48:09;100389.31;;;25.56;62.14
39449;BME280;25151;45.566;9.382;2023-10-13T08:53:23;100383.69;;;25.56;62.18
39449;BME280;25151;45.566;9.382;2023-10-13T08:58:30;100384.47;;;25.56;62.27
39449;BME280;25151;45.566;9.382;2023-10-13T09:01:15;100377.25;;;25.55;62.15
39449;BME280;25151;45.566;9.382;2023-10-13T09:04:10;100377.69;;;25.54;62.31
39449;BME280;25151;45.566;9.382;2023-10-13T09:07:08;100382.13;;;25.55;62.27
39449;BME280;25151;45.566;9.382;2023-10-13T09:12:21;100382.13;;;25.55;62.13
39449;BME280;25151;45.566;9.382;2023-10-13T09:15:09;100380.84;;;25.56;62.11
39449;BME280;25151;45.566;9.382;2023-10-13T09:17:41;100377.25;;;25.55;62.13
39449;BME280;25151;45.566;9.382;2023-10-13T09:20:15;100393.41;;;25.55;62.26
39449;BME280;25151;45.566;9.382;2023-10-13T09:22:52;100382.13;;;25.55;62.19
39449;BME280;25151;45.566;9.382;2023-10-13T09:25:35;100387.00;;;25.54;62.04
39449;BME280;25151;45.566;9.382;2023-10-13T09:28:14;100387.00;;;25.54;62.12
39449;BME280;25151;45.566;9.382;2023-10-13T09:30:53;100387.75;;;25.55;62.23
39449;BME280;25151;45.566;9.382;2023-10-13T09:33:27;100387.75;;;25.55;62.49
39449;BME280;25151;45.566;9.382;2023-10-13T09:36:03;100375.69;;;25.54;62.04
39449;BME280;25151;45.566;9.382;2023-10-13T09:38:39;100374.88;;;25.54;62.17
39449;BME280;25151;45.566;9.382;2023-10-13T09:41:07;100373.66;;;25.55;62.47
39449;BME280;25151;45.566;9.382;2023-10-13T09:43:52;100375.69;;;25.54;62.16
39449;BME280;25151;45.566;9.382;2023-10-13T09:46:25;100372.06;;;25.54;62.02
39449;BME280;25151;45.566;9.382;2023-10-13T09:49:14;100376.94;;;25.53;62.30
39449;BME280;25151;45.566;9.382;2023-10-13T09:52:01;100370.03;;;25.54;62.32
39449;BME280;25151;45.566;9.382;2023-10-13T09:54:36;100370.81;;;25.55;62.18
39449;BME280;25151;45.566;9.382;2023-10-13T09:57:18;100365.19;;;25.55;62.20
39449;BME280;25151;45.566;9.382;2023-10-13T09:59:55;100364.41;;;25.54;62.07
39449;BME280;25151;45.566;9.382;2023-10-13T10:02:33;100370.81;;;25.55;62.26
39449;BME280;25151;45.566;9.382;2023-10-13T10:05:01;100363.13;;;25.55;62.38
39449;BME280;25151;45.566;9.382;2023-10-13T10:07:55;100366.75;;;25.56;62.54
39449;BME280;25151;45.566;9.382;2023-10-13T10:13:25;100362.66;;;25.57;62.50
39449;BME280;25151;45.566;9.382;2023-10-13T10:16:12;100361.72;;;25.60;62.63
39449;BME280;25151;45.566;9.382;2023-10-13T10:18:46;100351.97;;;25.61;62.51
39449;BME280;25151;45.566;9.382;2023-10-13T10:21:14;100354.34;;;25.62;62.36
39449;BME280;25151;45.566;9.382;2023-10-13T10:23:53;100355.91;;;25.63;62.81
39449;BME280;25151;45.566;9.382;2023-10-13T10:26:20;100347.44;;;25.63;62.96
39449;BME280;25151;45.566;9.382;2023-10-13T10:28:47;100351.81;;;25.64;63.11
39449;BME280;25151;45.566;9.382;2023-10-13T10:31:14;100346.94;;;25.65;62.92
39449;BME280;25151;45.566;9.382;2023-10-13T10:33:43;100348.53;;;25.66;63.01
39449;BME280;25151;45.566;9.382;2023-10-13T10:36:11;100340.84;;;25.66;63.27
39449;BME280;25151;45.566;9.382;2023-10-13T10:38:56;100343.97;;;25.68;63.58
39449;BME280;25151;45.566;9.382;2023-10-13T10:41:29;100336.75;;;25.67;63.38
39449;BME280;25151;45.566;9.382;2023-10-13T10:44:15;100329.84;;;25.68;63.30
39449;BME280;25151;45.566;9.382;2023-10-13T10:47:19;100331.41;;;25.69;63.45
39449;BME280;25151;45.566;9.382;2023-10-13T10:50:03;100331.41;;;25.69;63.46
39449;BME280;25151;45.566;9.382;2023-10-13T10:52:52;100332.22;;;25.70;63.65
39449;BME280;25151;45.566;9.382;2023-10-13T10:55:23;100320.91;;;25.70;63.28
39449;BME280;25151;45.566;9.382;2023-10-13T10:58:01;100319.66;;;25.71;63.69
39449;BME280;25151;45.566;9.382;2023-10-13T11:00:30;100319.16;;;25.72;63.42
39449;BME280;25151;45.566;9.382;2023-10-13T11:03:08;100311.97;;;25.71;63.46
39449;BME280;25151;45.566;9.382;2023-10-13T11:05:46;100315.91;;;25.74;63.15
39449;BME280;25151;45.566;9.382;2023-10-13T11:08:24;100313.06;;;25.74;63.38
39449;BME280;25151;45.566;9.382;2023-10-13T11:11:00;100305.38;;;25.74;63.26
39449;BME280;25151;45.566;9.382;2023-10-13T11:13:38;100305.38;;;25.74;63.19
39449;BME280;25151;45.566;9.382;2023-10-13T11:16:08;100306.16;;;25.75;63.32
39449;BME280;25151;45.566;9.382;2023-10-13T11:18:35;100296.41;;;25.76;63.34
39449;BME280;25151;45.566;9.382;2023-10-13T11:21:06;100293.94;;;25.78;63.15
39449;BME280;25151;45.566;9.382;2023-10-13T11:23:34;100294.72;;;25.79;63.24
39449;BME280;25151;45.566;9.382;2023-10-13T11:26:02;100280.25;;;25.76;63.15
39449;BME280;25151;45.566;9.382;2023-10-13T11:28:31;100281.03;;;25.77;63.02
39449;BME280;25151;45.566;9.382;2023-10-13T11:31:00;100285.13;;;25.76;63.06
39449;BME280;25151;45.566;9.382;2023-10-13T11:33:45;100274.16;;;25.78;63.29
39449;BME280;25151;45.566;9.382;2023-10-13T11:36:12;100265.69;;;25.78;63.11
39449;BME280;25151;45.566;9.382;2023-10-13T11:39:00;100272.91;;;25.79;63.04
39449;BME280;25151;45.566;9.382;2023-10-13T11:41:27;100261.59;;;25.79;63.12
39449;BME280;25151;45.566;9.382;2023-10-13T11:44:03;100259.25;;;25.78;63.40
39449;BME280;25151;45.566;9.382;2023-10-13T11:46:33;100259.06;;;25.81;62.98
39449;BME280;25151;45.566;9.382;2023-10-13T11:51:45;100250.91;;;25.83;63.19
39449;BME280;25151;45.566;9.382;2023-10-13T11:54:20;100253.75;;;25.83;63.17
39449;BME280;25151;45.566;9.382;2023-10-13T11:56:48;100250.91;;;25.83;63.09
39449;BME280;25151;45.566;9.382;2023-10-13T11:59:16;100248.59;;;25.82;62.96
39449;BME280;25151;45.566;9.382;2023-10-13T12:01:51;100246.84;;;25.84;63.25
39449;BME280;25151;45.566;9.382;2023-10-13T12:04:37;100236.31;;;25.85;62.91
39449;BME280;25151;45.566;9.382;2023-10-13T12:07:18;100230.66;;;25.85;63.23
39449;BME280;25151;45.566;9.382;2023-10-13T12:10:06;100231.16;;;25.83;63.15
39449;BME280;25151;45.566;9.382;2023-10-13T12:12:41;100228.31;;;25.83;63.07
39449;BME280;25151;45.566;9.382;2023-10-13T12:15:09;100215.75;;;25.84;63.01
39449;BME280;25151;45.566;9.382;2023-10-13T12:17:40;100217.03;;;25.83;63.06
39449;BME280;25151;45.566;9.382;2023-10-13T12:20:12;100218.59;;;25.84;62.88
39449;BME280;25151;45.566;9.382;2023-10-13T12:22:59;100212.94;;;25.84;63.15
39449;BME280;25151;45.566;9.382;2023-10-13T12:25:39;100212.94;;;25.84;63.18
39449;BME280;25151;45.566;9.382;2023-10-13T12:28:25;100209.66;;;25.86;63.07
39449;BME280;25151;45.566;9.382;2023-10-13T12:31:03;100207.59;;;25.86;63.04
39449;BME280;25151;45.566;9.382;2023-10-13T12:33:31;100204.78;;;25.86;62.72
39449;BME280;25151;45.566;9.382;2023-10-13T12:36:13;100202.72;;;25.87;62.68
39449;BME280;25151;45.566;9.382;2023-10-13T12:38:40;100194.25;;;25.87;62.83
39449;BME280;25151;45.566;9.382;2023-10-13T12:41:13;100183.72;;;25.87;62.87
39449;BME280;25151;45.566;9.382;2023-10-13T12:43:58;100181.19;;;25.89;62.79
39449;BME280;25151;45.566;9.382;2023-10-13T12:46:43;100181.50;;;25.91;62.54
39449;BME280;25151;45.566;9.382;2023-10-13T12:49:29;100180.75;;;25.91;62.60
39449;BME280;25151;45.566;9.382;2023-10-13T12:52:16;100181.50;;;25.91;62.73
39449;BME280;25151;45.566;9.382;2023-10-13T12:54:43;100181.81;;;25.93;62.44
39449;BME280;25151;45.566;9.382;2023-10-13T12:57:15;100174.59;;;25.92;62.58
39449;BME280;25151;45.566;9.382;2023-10-13T12:59:42;100180.25;;;25.92;62.63
39449;BME280;25151;45.566;9.382;2023-10-13T13:02:09;100170.50;;;25.93;62.31
39449;BME280;25151;45.566;9.382;2023-10-13T13:04:44;100171.00;;;25.92;62.64
39449;BME280;25151;45.566;9.382;2023-10-13T13:07:11;100171.78;;;25.92;62.30
39449;BME280;25151;45.566;9.382;2023-10-13T13:09:43;100169.72;;;25.93;62.40
39449;BME280;25151;45.566;9.382;2023-10-13T13:12:11;100166.44;;;25.94;62.50
39449;BME280;25151;45.566;9.382;2023-10-13T13:14:40;100172.09;;;25.94;62.13
39449;BME280;25151;45.566;9.382;2023-10-13T13:17:12;100172.88;;;25.95;62.75
39449;BME280;25151;45.566;9.382;2023-10-13T13:19:39;100164.41;;;25.95;62.21
39449;BME280;25151;45.566;9.382;2023-10-13T13:22:06;100163.91;;;25.96;62.25
39449;BME280;25151;45.566;9.382;2023-10-13T13:24:44;100161.06;;;25.96;62.16
39449;BME280;25151;45.566;9.382;2023-10-13T13:27:11;100164.22;;;25.98;62.03
39449;BME280;25151;45.566;9.382;2023-10-13T13:29:41;100154.97;;;25.98;62.16
39449;BME280;25151;45.566;9.382;2023-10-13T13:32:08;100162.94;;;25.99;62.36
39449;BME280;25151;45.566;9.382;2023-10-13T13:34:50;100162.16;;;25.99;62.10
39449;BME280;25151;45.566;9.382;2023-10-13T13:37:40;100157.31;;;25.99;62.14
39449;BME280;25151;45.566;9.382;2023-10-13T13:40:26;100160.13;;;25.99;62.18
39449;BME280;25151;45.566;9.382;2023-10-13T13:43:01;100158.06;;;26.00;62.41
39449;BME280;25151;45.566;9.382;2023-10-13T13:45:28;100150.88;;;25.99;62.36
39449;BME280;25151;45.566;9.382;2023-10-13T13:47:55;100136.25;;;26.00;62.21
39449;BME280;25151;45.566;9.382;2023-10-13T13:50:26;100145.22;;;25.99;62.36
39449;BME280;25151;45.566;9.382;2023-10-13T13:52:56;100137.84;;;26.02;62.40
39449;BME280;25151;45.566;9.382;2023-10-13T13:55:26;100137.03;;;26.01;62.12
39449;BME280;25151;45.566;9.382;2023-10-13T13:57:57;100126.16;;;26.09;62.22
39449;BME280;25151;45.566;9.382;2023-10-13T14:00:24;100129.97;;;26.06;62.13